createdAt,value
2023-04-12T00:01:34.364Z,15.45
2023-04-12T00:04:04.829Z,15.45
2023-04-12T00:06:33.401Z,15.45
2023-04-12T00:09:00.754Z,15.44
2023-04-12T00:11:28.852Z,15.47
2023-04-12T00:13:56.225Z,15.44
2023-04-12T00:16:23.525Z,15.39
2023-04-12T00:18:51.881Z,15.43
2023-04-12T00:21:19.988Z,15.38
2023-04-12T00:23:47.838Z,15.41
2023-04-12T00:26:15.016Z,15.39
2023-04-12T00:28:42.544Z,15.42
2023-04-12T00:31:09.610Z,15.39
2023-04-12T00:33:36.593Z,15.40
2023-04-12T00:36:03.757Z,15.40
2023-04-12T00:38:30.728Z,15.39
2023-04-12T00:40:58.005Z,15.39
2023-04-12T00:43:28.037Z,15.40
2023-04-12T00:45:58.148Z,15.40
2023-04-12T00:48:25.236Z,15.41
2023-04-12T00:50:55.843Z,15.38
2023-04-12T00:53:23.919Z,15.37
2023-04-12T00:55:51.704Z,15.37
2023-04-12T00:58:19.076Z,15.35
2023-04-12T01:00:50.659Z,15.38
2023-04-12T01:03:23.814Z,15.38
2023-04-12T01:05:56.099Z,15.37
2023-04-12T01:08:26.442Z,15.34
2023-04-12T01:10:56.556Z,15.37
2023-04-12T01:13:24.833Z,15.36
2023-04-12T01:15:58.561Z,15.36
2023-04-12T01:18:28.452Z,15.38
2023-04-12T01:20:58.112Z,15.34
2023-04-12T01:23:28.803Z,15.35
2023-04-12T01:25:59.163Z,15.39
2023-04-12T01:28:29.574Z,15.34
2023-04-12T01:30:56.685Z,15.34
2023-04-12T01:33:24.617Z,15.36
2023-04-12T01:35:52.117Z,15.35
2023-04-12T01:38:19.553Z,15.34
2023-04-12T01:40:46.600Z,15.33
2023-04-12T01:43:16.258Z,15.31
2023-04-12T01:45:43.486Z,15.32
2023-04-12T01:48:11.362Z,15.33
2023-04-12T01:50:41.467Z,15.31
2023-04-12T01:53:11.536Z,15.31
2023-04-12T01:55:40.112Z,15.30
2023-04-12T01:58:08.157Z,15.31
2023-04-12T02:00:37.372Z,15.31
2023-04-12T02:03:06.104Z,15.28
2023-04-12T02:05:34.642Z,15.30
2023-04-12T02:08:02.965Z,15.28
2023-04-12T02:10:30.909Z,15.28
2023-04-12T02:12:59.528Z,15.30
2023-04-12T02:15:27.651Z,15.27
2023-04-12T02:17:55.017Z,15.27
2023-04-12T02:20:22.780Z,15.26
2023-04-12T02:22:52.090Z,15.28
2023-04-12T02:25:20.630Z,15.29
2023-04-12T02:27:49.027Z,15.27
2023-04-12T02:30:16.214Z,15.25
2023-04-12T02:32:44.523Z,15.25
2023-04-12T02:35:12.669Z,15.25
2023-04-12T02:37:39.614Z,15.26
2023-04-12T02:40:07.427Z,15.23
2023-04-12T02:42:34.409Z,15.23
2023-04-12T02:45:01.410Z,15.24
2023-04-12T02:47:29.632Z,15.24
2023-04-12T02:49:56.829Z,15.25
2023-04-12T02:52:23.755Z,15.24
2023-04-12T02:54:51.516Z,15.24
2023-04-12T02:57:18.446Z,15.22
2023-04-12T02:59:45.350Z,15.24
2023-04-12T03:02:12.360Z,15.23
2023-04-12T03:04:40.367Z,15.24
2023-04-12T03:07:07.396Z,15.23
2023-04-12T03:09:35.129Z,15.22
2023-04-12T03:12:02.513Z,15.24
2023-04-12T03:14:29.430Z,15.21
2023-04-12T03:16:56.808Z,15.23
2023-04-12T03:19:23.827Z,15.20
2023-04-12T03:21:51.467Z,15.22
2023-04-12T03:24:18.395Z,15.22
2023-04-12T03:26:45.338Z,15.23
2023-04-12T03:29:12.266Z,15.21
2023-04-12T03:31:39.333Z,15.21
2023-04-12T03:34:07.115Z,15.19
2023-04-12T03:36:34.172Z,15.21
2023-04-12T03:39:01.212Z,15.17
2023-04-12T03:41:28.894Z,15.17
2023-04-12T03:43:56.009Z,15.19
2023-04-12T03:46:23.175Z,15.20
2023-04-12T03:48:50.404Z,15.17
2023-04-12T03:51:17.313Z,15.13
2023-04-12T03:53:44.226Z,15.14
2023-04-12T03:56:12.869Z,15.12
2023-04-12T03:58:40.126Z,15.13
2023-04-12T04:01:07.279Z,15.13
2023-04-12T04:03:35.445Z,15.12
2023-04-12T04:06:02.809Z,15.14
2023-04-12T04:08:30.198Z,15.16
2023-04-12T04:10:57.659Z,15.12
2023-04-12T04:13:24.615Z,15.12
2023-04-12T04:15:52.379Z,15.15
2023-04-12T04:18:19.375Z,15.13
2023-04-12T04:20:46.341Z,15.14
2023-04-12T04:23:13.200Z,15.10
2023-04-12T04:25:40.368Z,15.11
2023-04-12T04:28:08.081Z,15.11
2023-04-12T04:30:39.244Z,15.09
2023-04-12T04:33:07.490Z,15.09
2023-04-12T04:35:34.529Z,15.12
2023-04-12T04:38:01.919Z,15.12
2023-04-12T04:40:29.229Z,15.08
2023-04-12T04:42:56.298Z,15.08
2023-04-12T04:45:26.852Z,15.10
2023-04-12T04:47:54.137Z,15.09
2023-04-12T04:50:23.183Z,15.11
2023-04-12T04:52:51.316Z,15.10
2023-04-12T04:55:18.706Z,15.08
2023-04-12T04:57:45.789Z,15.09
2023-04-12T05:00:14.410Z,15.05
2023-04-12T05:02:43.189Z,15.07
2023-04-12T05:05:11.083Z,15.06
2023-04-12T05:07:38.940Z,15.05
2023-04-12T05:10:06.471Z,15.06
2023-04-12T05:12:34.438Z,15.05
2023-04-12T05:17:32.332Z,15.04
2023-04-12T05:19:59.635Z,15.03
2023-04-12T05:22:27.088Z,15.06
2023-04-12T05:24:53.988Z,15.02
2023-04-12T05:27:21.097Z,15.02
2023-04-12T05:29:48.085Z,15.03
2023-04-12T05:32:15.082Z,15.02
2023-04-12T05:34:42.640Z,15.03
2023-04-12T05:37:09.686Z,15.03
2023-04-12T05:39:36.709Z,15.02
2023-04-12T05:42:03.751Z,15.00
2023-04-12T05:44:30.755Z,15.02
2023-04-12T05:46:57.660Z,14.98
2023-04-12T05:49:24.580Z,14.99
2023-04-12T05:51:51.476Z,14.97
2023-04-12T05:54:21.423Z,14.97
2023-04-12T05:56:48.427Z,14.98
2023-04-12T05:59:15.329Z,14.95
2023-04-12T06:01:44.987Z,14.96
2023-04-12T06:04:12.227Z,14.94
2023-04-12T06:06:39.358Z,14.98
2023-04-12T06:09:06.375Z,14.97
2023-04-12T06:11:34.372Z,14.95
2023-04-12T06:14:01.793Z,14.95
2023-04-12T06:16:28.929Z,14.92
2023-04-12T06:18:56.339Z,14.93
2023-04-12T06:21:23.606Z,14.92
2023-04-12T06:23:50.557Z,14.95
2023-04-12T06:26:18.571Z,14.95
2023-04-12T06:28:46.019Z,14.94
2023-04-12T06:31:13.221Z,14.94
2023-04-12T06:33:40.197Z,14.94
2023-04-12T06:36:07.642Z,14.93
2023-04-12T06:38:34.725Z,14.92
2023-04-12T06:41:01.897Z,14.91
2023-04-12T06:43:29.050Z,14.96
2023-04-12T06:45:57.441Z,14.90
2023-04-12T06:48:24.622Z,14.91
2023-04-12T06:50:51.541Z,14.89
2023-04-12T06:53:18.559Z,14.89
2023-04-12T06:55:45.675Z,14.88
2023-04-12T06:58:12.718Z,14.89
2023-04-12T07:00:39.889Z,14.87
2023-04-12T07:03:07.201Z,14.88
2023-04-12T07:05:34.392Z,14.88
2023-04-12T07:08:01.561Z,14.89
2023-04-12T07:10:28.694Z,14.87
2023-04-12T07:12:55.993Z,14.91
2023-04-12T07:15:22.939Z,14.86
2023-04-12T07:17:50.072Z,14.87
2023-04-12T07:20:18.054Z,14.87
2023-04-12T07:22:45.262Z,14.85
2023-04-12T07:25:12.671Z,14.85
2023-04-12T07:27:39.984Z,14.85
2023-04-12T07:30:07.711Z,14.83
2023-04-12T07:32:34.820Z,14.85
2023-04-12T07:35:02.194Z,14.86
2023-04-12T07:37:29.217Z,14.84
2023-04-12T07:39:56.329Z,14.84
2023-04-12T07:42:23.466Z,14.85
2023-04-12T07:44:51.036Z,14.83
2023-04-12T07:47:17.979Z,14.81
2023-04-12T07:49:45.129Z,14.82
2023-04-12T07:52:12.179Z,14.81
2023-04-12T07:54:39.358Z,14.81
2023-04-12T07:57:06.631Z,14.84
2023-04-12T07:59:34.642Z,14.83
2023-04-12T08:02:03.461Z,14.77
2023-04-12T08:04:30.886Z,14.80
2023-04-12T08:06:58.007Z,14.79
2023-04-12T08:09:25.283Z,14.79
2023-04-12T08:11:52.609Z,14.82
2023-04-12T08:14:23.632Z,14.80
2023-04-12T08:16:51.148Z,14.78
2023-04-12T08:19:19.053Z,14.79
2023-04-12T08:21:51.884Z,14.76
2023-04-12T08:24:20.336Z,14.79
2023-04-12T08:26:47.424Z,14.77
2023-04-12T08:29:14.698Z,14.77
2023-04-12T08:31:42.589Z,14.75
2023-04-12T08:34:11.184Z,14.76
2023-04-12T08:36:44.601Z,14.76
2023-04-12T08:39:15.609Z,14.76
2023-04-12T08:41:43.642Z,14.74
2023-04-12T08:44:11.833Z,14.78
2023-04-12T08:46:39.016Z,14.73
2023-04-12T08:49:06.198Z,14.76
2023-04-12T08:51:34.770Z,14.78
2023-04-12T08:54:01.858Z,14.75
2023-04-12T08:56:29.926Z,14.74
2023-04-12T08:58:58.136Z,14.76
2023-04-12T09:01:26.223Z,14.74
2023-04-12T09:03:53.500Z,14.73
2023-04-12T09:06:21.111Z,14.75
2023-04-12T09:08:51.333Z,14.73
2023-04-12T09:11:21.510Z,14.74
2023-04-12T09:13:48.648Z,14.74
2023-04-12T09:16:15.918Z,14.74
2023-04-12T09:18:46.223Z,14.77
2023-04-12T09:21:14.559Z,14.79
2023-04-12T09:23:41.595Z,14.77
2023-04-12T09:26:09.793Z,14.82
2023-04-12T09:28:37.121Z,14.79
2023-04-12T09:31:05.236Z,14.82
2023-04-12T09:33:41.247Z,14.84
2023-04-12T09:36:13.950Z,14.82
2023-04-12T09:38:43.520Z,14.83
2023-04-12T09:41:15.027Z,14.84
2023-04-12T09:43:42.095Z,14.84
2023-04-12T09:46:12.262Z,14.84
2023-04-12T09:48:41.208Z,14.84
2023-04-12T09:51:09.048Z,14.86
2023-04-12T09:53:39.620Z,14.88
2023-04-12T09:56:08.845Z,14.89
2023-04-12T09:58:37.175Z,14.87
2023-04-12T10:01:06.032Z,14.89
2023-04-12T10:03:34.284Z,14.90
2023-04-12T10:06:04.023Z,14.89
2023-04-12T10:08:40.768Z,14.91
2023-04-12T10:11:08.053Z,14.90
2023-04-12T10:13:36.026Z,14.92
2023-04-12T10:16:05.936Z,14.93
2023-04-12T10:18:36.116Z,14.92
2023-04-12T10:21:04.116Z,14.93
2023-04-12T10:23:34.447Z,14.92
2023-04-12T10:26:03.109Z,14.93
2023-04-12T10:28:31.289Z,14.96
2023-04-12T10:30:58.748Z,14.96
2023-04-12T10:33:27.085Z,15.00
2023-04-12T10:35:55.332Z,15.04
2023-04-12T10:38:25.702Z,15.10
2023-04-12T10:40:55.990Z,15.09
2023-04-12T10:43:23.858Z,15.13
2023-04-12T10:45:51.382Z,15.18
2023-04-12T10:48:21.632Z,15.22
2023-04-12T10:50:48.792Z,15.26
2023-04-12T10:53:20.211Z,15.29
2023-04-12T10:55:47.612Z,15.32
2023-04-12T10:58:17.756Z,15.33
2023-04-12T11:00:58.201Z,15.38
2023-04-12T11:03:26.273Z,15.39
2023-04-12T11:05:56.943Z,15.39
2023-04-12T11:08:24.654Z,15.38
2023-04-12T11:10:52.017Z,15.37
2023-04-12T11:13:21.035Z,15.34
2023-04-12T11:15:53.978Z,15.36
2023-04-12T11:18:22.826Z,15.36
2023-04-12T11:20:53.234Z,15.38
2023-04-12T11:23:20.872Z,15.47
2023-04-12T11:25:52.632Z,15.45
2023-04-12T11:28:28.681Z,15.50
2023-04-12T11:30:58.272Z,15.54
2023-04-12T11:33:28.841Z,15.53
2023-04-12T11:35:56.390Z,15.54
2023-04-12T11:38:24.052Z,15.56
2023-04-12T11:40:52.034Z,15.54
2023-04-12T11:43:20.782Z,15.53
2023-04-12T11:45:48.819Z,15.51
2023-04-12T11:48:18.344Z,15.49
2023-04-12T11:50:51.858Z,15.47
2023-04-12T11:53:27.984Z,15.52
2023-04-12T11:55:57.000Z,15.47
2023-04-12T11:58:27.081Z,15.47
2023-04-12T12:00:55.644Z,15.50
2023-04-12T12:03:27.640Z,15.45
2023-04-12T12:05:55.653Z,15.47
2023-04-12T12:08:25.150Z,15.49
2023-04-12T12:11:07.306Z,15.50
2023-04-12T12:13:39.816Z,15.56
2023-04-12T12:16:09.012Z,15.55
2023-04-12T12:18:40.563Z,15.51
2023-04-12T12:21:10.515Z,15.49
2023-04-12T12:23:37.998Z,15.49
2023-04-12T12:26:18.542Z,15.54
2023-04-12T12:28:50.356Z,15.56
2023-04-12T12:31:20.694Z,15.56
2023-04-12T12:33:48.260Z,15.56
2023-04-12T12:36:19.011Z,15.61
2023-04-12T12:38:46.420Z,15.55
2023-04-12T12:41:17.412Z,15.59
2023-04-12T12:43:46.832Z,15.60
2023-04-12T12:46:15.035Z,15.59
2023-04-12T12:48:42.978Z,15.58
2023-04-12T12:51:11.203Z,15.55
2023-04-12T12:53:39.256Z,15.54
2023-04-12T12:56:07.504Z,15.54
2023-04-12T12:58:35.242Z,15.51
2023-04-12T13:01:03.156Z,15.51
2023-04-12T13:03:31.145Z,15.49
2023-04-12T13:05:58.733Z,15.47
2023-04-12T13:08:26.755Z,15.44
2023-04-12T13:10:54.438Z,15.44
2023-04-12T13:13:22.238Z,15.42
2023-04-12T13:15:49.840Z,15.38
2023-04-12T13:18:17.410Z,15.37
2023-04-12T13:20:44.736Z,15.35
2023-04-12T13:23:12.169Z,15.35
2023-04-12T13:25:39.731Z,15.35
2023-04-12T13:28:07.236Z,15.30
2023-04-12T13:30:34.488Z,15.27
2023-04-12T13:33:02.102Z,15.27
2023-04-12T13:35:29.544Z,15.25
2023-04-12T13:37:56.996Z,15.23
2023-04-12T13:40:26.090Z,15.22
2023-04-12T13:42:53.474Z,15.23
2023-04-12T13:45:21.672Z,15.23
2023-04-12T13:47:48.882Z,15.21
2023-04-12T13:50:17.704Z,15.18
2023-04-12T13:52:44.980Z,15.18
2023-04-12T13:55:12.343Z,15.18
2023-04-12T13:57:40.098Z,15.16
2023-04-12T14:00:08.399Z,15.17
2023-04-12T14:02:36.015Z,15.11
2023-04-12T14:05:03.522Z,15.11
2023-04-12T14:07:31.012Z,15.11
2023-04-12T14:09:58.375Z,15.11
2023-04-12T14:12:26.037Z,15.10
2023-04-12T14:14:53.251Z,15.08
2023-04-12T14:17:20.720Z,15.08
2023-04-12T14:19:47.970Z,15.06
2023-04-12T14:22:15.312Z,15.07
2023-04-12T14:24:42.496Z,15.02
2023-04-12T14:27:09.828Z,15.03
2023-04-12T14:29:38.231Z,14.99
2023-04-12T14:32:05.696Z,15.02
2023-04-12T14:34:33.056Z,14.99
2023-04-12T14:37:00.930Z,15.02
2023-04-12T14:39:28.436Z,14.97
2023-04-12T14:41:57.693Z,15.01
2023-04-12T14:44:26.359Z,14.99
2023-04-12T14:46:53.947Z,14.98
2023-04-12T14:49:21.257Z,14.97
2023-04-12T14:51:48.634Z,14.98
2023-04-12T14:54:16.302Z,14.97
2023-04-12T14:56:52.151Z,14.98
2023-04-12T14:59:21.421Z,14.97
2023-04-12T15:01:49.084Z,15.00
2023-04-12T15:04:21.604Z,14.97
2023-04-12T15:06:49.319Z,14.99
2023-04-12T15:09:18.058Z,14.94
2023-04-12T15:11:47.494Z,14.96
2023-04-12T15:14:18.036Z,14.96
2023-04-12T15:16:47.745Z,14.93
2023-04-12T15:19:21.233Z,14.96
2023-04-12T15:21:51.760Z,14.96
2023-04-12T15:24:19.834Z,14.95
2023-04-12T15:26:48.915Z,14.93
2023-04-12T15:29:17.895Z,14.91
2023-04-12T15:31:45.869Z,14.93
2023-04-12T15:34:14.238Z,14.92
2023-04-12T15:36:43.699Z,14.91
2023-04-12T15:39:11.818Z,14.91
2023-04-12T15:41:40.459Z,14.87
2023-04-12T15:44:11.670Z,14.85
2023-04-12T15:46:40.360Z,14.85
2023-04-12T15:49:07.855Z,14.86
2023-04-12T15:51:36.144Z,14.85
2023-04-12T15:54:20.063Z,14.87
2023-04-12T15:56:47.331Z,14.84
2023-04-12T15:59:15.275Z,14.89
2023-04-12T16:01:43.043Z,14.88
2023-04-12T16:04:11.778Z,14.85
2023-04-12T16:06:48.373Z,14.86
2023-04-12T16:09:16.241Z,14.83
2023-04-12T16:11:45.111Z,14.83
2023-04-12T16:14:14.079Z,14.83
2023-04-12T16:16:42.261Z,14.83
2023-04-12T16:19:11.196Z,14.85
2023-04-12T16:21:50.156Z,14.79
2023-04-12T16:24:18.842Z,14.78
2023-04-12T16:26:47.802Z,14.82
2023-04-12T16:29:15.811Z,14.80
2023-04-12T16:31:44.149Z,14.81
2023-04-12T16:34:13.449Z,14.80
2023-04-12T16:36:44.623Z,14.81
2023-04-12T16:39:14.547Z,14.77
2023-04-12T16:41:43.113Z,14.77
2023-04-12T16:44:12.595Z,14.77
2023-04-12T16:46:48.046Z,14.76
2023-04-12T16:49:18.322Z,14.73
2023-04-12T16:51:48.756Z,14.77
2023-04-12T16:54:17.015Z,14.77
2023-04-12T16:56:44.861Z,14.73
2023-04-12T16:59:21.875Z,14.72
2023-04-12T17:04:48.387Z,14.76
2023-04-12T17:07:51.981Z,14.74
2023-04-12T17:10:30.081Z,14.77
2023-04-12T17:13:41.963Z,14.75
2023-04-12T17:16:11.675Z,14.76
2023-04-12T17:18:54.192Z,14.74
2023-04-12T17:21:23.345Z,14.71
2023-04-12T17:23:51.237Z,14.72
2023-04-12T17:26:44.046Z,14.72
2023-04-12T17:29:12.857Z,14.68
2023-04-12T17:31:55.088Z,14.67
2023-04-12T17:34:34.375Z,14.67
2023-04-12T17:37:16.914Z,14.68
2023-04-12T17:39:57.685Z,14.67
2023-04-12T17:42:29.470Z,14.66
2023-04-12T17:45:04.984Z,14.65
2023-04-12T17:47:35.767Z,14.66
2023-04-12T17:50:06.686Z,14.68
2023-04-12T17:52:53.668Z,14.66
2023-04-12T17:55:39.625Z,14.64
2023-04-12T17:58:08.513Z,14.67
2023-04-12T18:00:37.462Z,14.67
2023-04-12T18:06:34.272Z,14.67
2023-04-12T18:09:16.756Z,14.65
2023-04-12T18:12:28.337Z,14.67
2023-04-12T18:15:06.039Z,14.66
2023-04-12T18:20:30.657Z,14.65
2023-04-12T18:26:15.232Z,14.62
2023-04-12T18:28:50.763Z,14.62
2023-04-12T18:31:27.003Z,14.61
2023-04-12T18:34:03.357Z,14.60
2023-04-12T18:36:33.976Z,14.61
2023-04-12T18:39:07.068Z,14.61
2023-04-12T18:41:35.261Z,14.61
2023-04-12T18:44:03.891Z,14.58
2023-04-12T18:46:31.913Z,14.56
2023-04-12T18:49:00.605Z,14.56
2023-04-12T18:51:30.696Z,14.55
2023-04-12T18:54:18.979Z,14.56
2023-04-12T18:56:46.848Z,14.58
2023-04-12T18:59:25.516Z,14.55
2023-04-12T19:01:53.413Z,14.54
2023-04-12T19:04:20.992Z,14.55
2023-04-12T19:06:49.003Z,14.54
2023-04-12T19:09:17.442Z,14.53
2023-04-12T19:11:44.864Z,14.53
2023-04-12T19:14:12.518Z,14.55
2023-04-12T19:16:40.135Z,14.53
2023-04-12T19:19:07.794Z,14.54
2023-04-12T19:21:36.112Z,14.50
2023-04-12T19:24:04.167Z,14.54
2023-04-12T19:26:32.502Z,14.51
2023-04-12T19:29:00.725Z,14.51
2023-04-12T19:31:28.546Z,14.52
2023-04-12T19:33:56.830Z,14.50
2023-04-12T19:36:25.126Z,14.51
2023-04-12T19:38:53.399Z,14.49
2023-04-12T19:41:22.021Z,14.49
2023-04-12T19:43:51.025Z,14.49
2023-04-12T19:46:18.983Z,14.48
2023-04-12T19:48:47.039Z,14.47
2023-04-12T19:51:15.813Z,14.47
2023-04-12T19:53:43.758Z,14.47
2023-04-12T19:56:13.399Z,14.47
2023-04-12T19:58:42.113Z,14.47
2023-04-12T20:01:10.404Z,14.45
2023-04-12T20:03:39.383Z,14.46
2023-04-12T20:06:07.120Z,14.45
2023-04-12T20:08:36.278Z,14.44
2023-04-12T20:11:04.313Z,14.45
2023-04-12T20:13:32.334Z,14.43
2023-04-12T20:16:01.872Z,14.45
2023-04-12T20:18:30.209Z,14.47
2023-04-12T20:20:59.311Z,14.43
2023-04-12T20:23:27.712Z,14.43
2023-04-12T20:25:56.190Z,14.39
2023-04-12T20:28:24.288Z,14.40
2023-04-12T20:30:51.879Z,14.41
2023-04-12T20:33:21.484Z,14.41
2023-04-12T20:35:50.977Z,14.40
2023-04-12T20:38:19.140Z,14.41
2023-04-12T20:40:47.433Z,14.37
2023-04-12T20:43:16.002Z,14.40
2023-04-12T20:45:43.743Z,14.37
2023-04-12T20:48:11.846Z,14.39
2023-04-12T20:50:40.020Z,14.41
2023-04-12T20:53:09.659Z,14.38
2023-04-12T20:55:37.135Z,14.37
2023-04-12T20:58:06.382Z,14.36
2023-04-12T21:00:35.075Z,14.36
2023-04-12T21:03:03.314Z,14.39
2023-04-12T21:05:34.076Z,14.37
2023-04-12T21:08:01.193Z,14.36
2023-04-12T21:10:28.812Z,14.38
2023-04-12T21:12:55.888Z,14.37
2023-04-12T21:15:23.125Z,14.40
2023-04-12T21:17:52.833Z,14.40
2023-04-12T21:20:20.284Z,14.37
2023-04-12T21:22:48.230Z,14.38
2023-04-12T21:25:16.984Z,14.34
2023-04-12T21:27:45.657Z,14.37
2023-04-12T21:30:13.260Z,14.35
2023-04-12T21:32:41.530Z,14.35
2023-04-12T21:35:09.091Z,14.34
2023-04-12T21:37:37.364Z,14.33
2023-04-12T21:40:09.612Z,14.33
2023-04-12T21:42:37.445Z,14.36
2023-04-12T21:45:04.855Z,14.33
2023-04-12T21:47:32.651Z,14.33
2023-04-12T21:49:59.672Z,14.35
2023-04-12T21:52:27.073Z,14.34
2023-04-12T21:54:55.089Z,14.33
2023-04-12T21:57:22.071Z,14.33
2023-04-12T21:59:49.214Z,14.32
2023-04-12T22:02:16.360Z,14.32
2023-04-12T22:04:43.913Z,14.31
2023-04-12T22:07:13.165Z,14.33
2023-04-12T22:09:41.674Z,14.32
2023-04-12T22:12:08.917Z,14.33
2023-04-12T22:14:36.906Z,14.32
2023-04-12T22:17:04.471Z,14.31
2023-04-12T22:19:31.717Z,14.34
2023-04-12T22:21:58.702Z,14.35
2023-04-12T22:24:26.660Z,14.31
2023-04-12T22:26:57.738Z,14.33
2023-04-12T22:29:25.668Z,14.29
2023-04-12T22:31:53.083Z,14.30
2023-04-12T22:34:20.049Z,14.29
2023-04-12T22:36:51.971Z,14.28
2023-04-12T22:39:19.328Z,14.29
2023-04-12T22:41:49.812Z,14.29
2023-04-12T22:44:17.744Z,14.29
2023-04-12T22:46:48.634Z,14.29
2023-04-12T22:49:17.224Z,14.29
2023-04-12T22:51:44.769Z,14.27
2023-04-12T22:54:12.377Z,14.26
2023-04-12T22:56:45.559Z,14.25
2023-04-12T22:59:14.596Z,14.23
2023-04-12T23:01:42.208Z,14.25
2023-04-12T23:04:11.793Z,14.25
2023-04-12T23:06:40.455Z,14.25
2023-04-12T23:09:07.762Z,14.26
2023-04-12T23:11:35.380Z,14.23
2023-04-12T23:14:02.963Z,14.25
2023-04-12T23:16:30.193Z,14.24
2023-04-12T23:18:57.949Z,14.24
2023-04-12T23:21:24.849Z,14.26
2023-04-12T23:23:52.935Z,14.23
2023-04-12T23:26:20.232Z,14.22
2023-04-12T23:28:47.800Z,14.25
2023-04-12T23:31:15.464Z,14.24
2023-04-12T23:33:43.501Z,14.23
2023-04-12T23:36:11.174Z,14.22
2023-04-12T23:38:39.113Z,14.21
2023-04-12T23:41:07.276Z,14.19
2023-04-12T23:43:34.990Z,14.20
2023-04-12T23:46:03.441Z,14.20
2023-04-12T23:48:31.922Z,14.22
2023-04-12T23:50:59.010Z,14.21
2023-04-12T23:53:26.274Z,14.20
2023-04-12T23:55:53.777Z,14.24
2023-04-12T23:58:21.350Z,14.20
